FRIANT DAM (MILLERTON) (MIL)

Elevation: 581' · SAN JOAQUIN R basin · Operator: US Bureau of Reclamation


Station comments:

11/19/2014Hourly storage has resumed as of 11/19/2014. It had previously stopped at 2/26/1998.


Provisional data, subject to change.
Query executed Sunday at 10:07:23   clock

Select a sensor type for a plot of data.
Note: Reservoir Flows are daily averages.

Earlier

Date RES ELE    STORAGE    RES CHG    TOC STO    ABV TOC    OUTFLOW    INFLOW    EVAP    FNF    RIV REL    PPT INC    SPILL   
 FEET   AF   AF   AF   AF   CFS   CFS   CFS   CFS   CFS   INCHES   CFS  
03/21/2015 495.71 203256 56 491686 -288430 181 228 19 564 181 0.00 0
03/22/2015 495.87 203709 453 494568 -- 181 426 17 525 181 0.00 0
03/23/2015 496.04 204191 482 497449 -293258 189 450 18 712 189 0.00 0
03/24/2015 496.10 204363 172 500330 -295968 306 405 12 554 195 0.00 0
03/25/2015 496.04 204191 -172 503212 -299021 278 208 17 514 195 0.00 0
03/26/2015 496.03 204163 -28 506093 -301930 195 198 17 544 195 0.00 0
03/27/2015 496.00 204077 -86 508975 -304898 195 172 20 707 195 0.00 0
03/28/2015 496.05 204220 143 -- -- 195 288 21 790 195 0.00 0
03/29/2015 496.15 204505 285 514737 -- 195 362 23 789 195 0.00 0
03/30/2015 496.24 204762 257 517619 -- 195 346 21 870 195 0.00 0
03/31/2015 496.16 204534 -228 520500 -- 390 304 29 852 195 0.00 0
04/01/2015 495.99 204049 -485 520500 -316451 372 160 33 798 195 0.00 0
04/02/2015 495.89 203766 -283 520500 -316734 195 70 18 577 195 0.00 0
04/03/2015 495.78 203454 -312 520500 -317046 195 55 17 424 195 0.00 0
04/04/2015 495.67 203143 -311 520500 -317357 195 58 20 478 195 0.00 0
04/05/2015 495.57 202860 -283 520500 -317640 194 67 16 414 194 0.00 0
04/06/2015 495.46 202549 -311 520500 -317951 194 49 12 418 194 0.00 0
04/07/2015 495.40 202379 -170 520500 -318121 194 122 14 744 194 0.35 0
04/08/2015 495.32 202153 -226 520500 -318347 194 93 13 451 194 0.00 0
04/09/2015 495.23 201898 -255 520500 -318602 186 67 10 507 186 0.00 0
04/10/2015 495.13 201615 -283 520500 -318885 186 60 17 538 186 0.00 0
04/11/2015 495.03 201332 -283 520500 -319168 186 67 24 522 186 0.00 0
04/12/2015 494.94 201079 -253 520500 -- 186 84 26 627 186 0.00 0
04/13/2015 494.82 200742 -337 520500 -319758 186 44 28 538 186 0.00 0
04/14/2015 494.70 200405 -337 520500 -320095 186 42 26 587 186 0.00 0
04/15/2015 494.58 200068 -337 520500 -320432 186 45 29 477 186 0.00 0
04/16/2015 494.45 199704 -364 520500 -320796 186 28 26 454 186 0.00 0
04/17/2015 494.23 199086 -618 520500 -321414 302 13 23 428 186 0.00 0
04/18/2015 493.95 198302 -784 520500 -322198 385 14 24 477 186 0.00 0
04/19/2015 -- -- -- -- -- -- -- -- -- -- -- --

Later | Latest

Warning! This data is preliminary and subject to revision.

Show MIL Map | Plot MIL Data | 1 Month MIL Data | Real-Time MIL Data | MIL Info